Time;durP1;ratioP1;P1;durP2;ratioP2;P2;SDS_P1;SDS_P2;PMS_P1;PMS_P2;Temp;Humidity;BMP_temperature;BMP_pressure;BME280_temperature;BME280_humidity;BME280_pressure;Samples;Min_cycle;Max_cycle;Signal;HPM_P1;HPM_P2
2023/02/15 00:02:25;;;;;;;39.65;19.90;;;5.10;67.00;;;;;;5006239;28;20022;-84
2023/02/15 00:04:51;;;;;;;52.75;20.50;;;5.00;67.10;;;;;;5004864;28;20382;-83
2023/02/15 00:07:18;;;;;;;37.90;19.33;;;5.00;67.30;;;;;;5006026;28;20022;-84
2023/02/15 00:09:47;;;;;;;38.05;19.00;;;4.90;67.40;;;;;;5004026;28;20023;-83
2023/02/15 00:12:15;;;;;;;39.97;19.20;;;4.90;67.50;;;;;;5003933;28;20018;-82
2023/02/15 00:14:41;;;;;;;42.47;20.25;;;4.90;67.80;;;;;;5003542;28;20022;-81
2023/02/15 00:17:07;;;;;;;38.22;19.13;;;5.00;67.90;;;;;;4986853;28;20050;-82
2023/02/15 00:19:33;;;;;;;40.28;19.98;;;4.90;67.80;;;;;;5003792;28;20136;-82
2023/02/15 00:21:59;;;;;;;40.10;19.58;;;4.90;67.80;;;;;;5007473;28;20042;-83
2023/02/15 00:24:26;;;;;;;38.63;18.55;;;4.80;67.90;;;;;;5005249;28;20026;-82
2023/02/15 00:26:52;;;;;;;41.95;21.55;;;4.90;68.10;;;;;;5003129;28;20025;-82
2023/02/15 00:29:19;;;;;;;37.35;18.67;;;4.90;68.20;;;;;;5005618;28;20018;-81
2023/02/15 00:31:45;;;;;;;35.35;18.27;;;4.90;68.30;;;;;;5004164;28;20030;-83
2023/02/15 00:34:17;;;;;;;38.03;18.55;;;5.00;68.40;;;;;;5006563;28;20025;-83
2023/02/15 00:36:43;;;;;;;32.70;17.05;;;5.00;68.40;;;;;;5005450;28;20097;-82
2023/02/15 00:39:10;;;;;;;32.33;16.83;;;5.00;68.30;;;;;;4989879;28;20468;-82
2023/02/15 00:41:36;;;;;;;41.40;18.48;;;5.00;68.40;;;;;;5003764;28;20022;-84
2023/02/15 00:44:02;;;;;;;37.05;17.55;;;5.10;68.40;;;;;;4988254;28;20308;-81
2023/02/15 00:46:28;;;;;;;33.85;16.80;;;5.00;68.30;;;;;;5000632;28;20026;-81
2023/02/15 00:48:54;;;;;;;33.15;15.85;;;5.00;68.30;;;;;;4997127;28;20026;-83
2023/02/15 00:51:20;;;;;;;35.25;16.63;;;5.00;68.40;;;;;;4998655;28;20068;-81
2023/02/15 00:53:46;;;;;;;37.65;17.35;;;5.00;68.60;;;;;;5010513;28;20026;-82
2023/02/15 00:56:12;;;;;;;35.78;16.83;;;5.00;68.70;;;;;;5015331;28;20030;-82
2023/02/15 00:58:38;;;;;;;36.47;16.95;;;5.00;68.90;;;;;;5015285;28;20073;-83
2023/02/15 01:01:07;;;;;;;29.30;14.00;;;5.00;69.00;;;;;;4999646;28;20030;-83
2023/02/15 01:03:33;;;;;;;30.45;15.40;;;5.00;69.20;;;;;;5016452;28;20479;-82
2023/02/15 01:05:59;;;;;;;27.90;14.75;;;5.10;69.30;;;;;;5012079;28;20108;-81
2023/02/15 01:08:25;;;;;;;33.28;15.90;;;5.10;69.40;;;;;;5011589;28;20026;-82
2023/02/15 01:10:51;;;;;;;33.28;15.60;;;5.10;69.30;;;;;;5006345;28;20018;-83
2023/02/15 01:13:17;;;;;;;34.28;16.38;;;5.10;69.40;;;;;;5003023;28;20493;-81
2023/02/15 01:15:44;;;;;;;31.33;15.18;;;5.20;69.50;;;;;;5005869;28;20126;-84
2023/02/15 01:18:10;;;;;;;31.17;15.70;;;5.20;69.50;;;;;;4987160;28;20053;-81
2023/02/15 01:20:38;;;;;;;31.88;15.90;;;5.20;69.50;;;;;;5004603;28;20042;-82
2023/02/15 01:23:06;;;;;;;34.95;17.83;;;5.20;69.50;;;;;;5004058;28;20044;-83
2023/02/15 01:25:33;;;;;;;31.27;15.48;;;5.30;69.50;;;;;;5004712;28;20024;-82
2023/02/15 01:27:59;;;;;;;33.25;15.70;;;5.30;69.50;;;;;;4988881;28;20026;-84
2023/02/15 01:30:25;;;;;;;33.45;16.45;;;5.40;69.60;;;;;;5003311;28;20108;-83
2023/02/15 01:32:51;;;;;;;34.42;17.40;;;5.40;69.40;;;;;;5005149;28;20031;-84
2023/02/15 01:35:17;;;;;;;35.95;16.65;;;5.40;69.30;;;;;;5011949;28;20022;-83
2023/02/15 01:37:43;;;;;;;32.30;16.23;;;5.40;69.20;;;;;;5011141;28;20017;-83
2023/02/15 01:40:13;;;;;;;32.17;16.38;;;5.50;69.20;;;;;;5011403;28;20158;-83
2023/02/15 01:42:39;;;;;;;32.22;15.82;;;5.50;69.20;;;;;;5009658;28;20032;-83
2023/02/15 01:45:23;;;;;;;31.30;15.77;;;5.50;69.10;;;;;;5007968;28;20072;-83
2023/02/15 01:48:15;;;;;;;32.87;16.40;;;5.50;68.90;;;;;;5004884;28;20521;-85
2023/02/15 01:50:45;;;;;;;32.05;14.85;;;5.50;68.80;;;;;;5006305;28;20254;-84
2023/02/15 01:53:20;;;;;;;32.15;15.65;;;5.40;68.60;;;;;;4987397;28;20480;-82
2023/02/15 01:55:55;;;;;;;33.60;16.02;;;5.40;68.70;;;;;;5002261;28;20030;-85
2023/02/15 01:58:24;;;;;;;30.08;15.35;;;5.40;68.80;;;;;;4985517;28;20022;-82
2023/02/15 02:00:50;;;;;;;34.00;16.75;;;5.30;68.70;;;;;;4986578;28;20104;-83
2023/02/15 02:03:16;;;;;;;29.02;14.32;;;5.30;68.70;;;;;;4984302;28;20034;-82
2023/02/15 02:05:42;;;;;;;31.50;15.98;;;5.30;68.70;;;;;;5007008;28;20045;-81
2023/02/15 02:08:11;;;;;;;32.08;15.18;;;5.30;68.70;;;;;;4986521;28;20458;-81
2023/02/15 02:10:37;;;;;;;30.13;14.27;;;5.30;68.70;;;;;;5004100;28;20014;-83
2023/02/15 02:13:05;;;;;;;35.85;15.75;;;5.30;68.70;;;;;;4986548;28;20376;-83
2023/02/15 02:16:08;;;;;;;30.00;14.82;;;5.30;68.80;;;;;;4988278;28;20383;-83
2023/02/15 02:19:10;;;;;;;30.90;15.15;;;5.30;68.90;;;;;;4985761;28;20061;-84
2023/02/15 02:22:13;;;;;;;34.35;15.73;;;5.30;68.90;;;;;;5003517;28;20121;-83
2023/02/15 02:25:16;;;;;;;30.73;15.75;;;5.30;68.90;;;;;;5003603;28;20030;-82
2023/02/15 02:27:59;;;;;;;29.77;15.50;;;5.30;69.00;;;;;;4986276;28;20025;-85
2023/02/15 02:30:57;;;;;;;29.95;16.02;;;5.20;68.90;;;;;;5002020;28;20546;-85
2023/02/15 02:33:39;;;;;;;29.30;14.90;;;5.20;69.00;;;;;;5003994;28;20022;-82
2023/02/15 02:36:20;;;;;;;31.77;15.02;;;5.20;69.20;;;;;;4987237;28;20018;-82
2023/02/15 02:39:15;;;;;;;33.60;15.88;;;5.20;69.40;;;;;;5002068;28;20113;-82
2023/02/15 02:42:06;;;;;;;33.45;15.48;;;5.20;69.50;;;;;;5001262;28;20146;-81
2023/02/15 02:44:39;;;;;;;33.15;15.88;;;5.20;69.50;;;;;;5012477;28;20139;-84
2023/02/15 02:47:32;;;;;;;36.60;16.98;;;5.20;69.60;;;;;;5014469;28;20022;-82
2023/02/15 02:50:01;;;;;;;37.97;17.15;;;5.20;70.00;;;;;;5003999;28;20353;-83
2023/02/15 02:52:42;;;;;;;39.58;17.10;;;5.20;70.10;;;;;;4982929;28;20019;-82
2023/02/15 02:55:15;;;;;;;41.55;17.38;;;5.20;70.30;;;;;;5002285;28;20044;-83
2023/02/15 02:57:53;;;;;;;38.42;17.33;;;5.20;70.40;;;;;;5004151;28;20084;-83
2023/02/15 03:00:21;;;;;;;41.75;18.70;;;5.20;70.50;;;;;;4986165;28;20113;-82
2023/02/15 03:02:50;;;;;;;41.03;18.52;;;5.20;70.80;;;;;;4984457;28;20475;-83
2023/02/15 03:05:21;;;;;;;39.72;18.30;;;5.30;70.90;;;;;;4985258;28;20018;-82
2023/02/15 03:07:50;;;;;;;39.80;17.77;;;5.20;70.90;;;;;;4986028;28;20383;-82
2023/02/15 03:10:20;;;;;;;38.53;17.05;;;5.30;71.00;;;;;;5003073;28;20044;-82
2023/02/15 03:12:46;;;;;;;36.97;17.20;;;5.30;71.10;;;;;;4984136;28;20022;-82
2023/02/15 03:15:26;;;;;;;40.58;17.88;;;5.30;71.10;;;;;;4984039;28;20134;-84
2023/02/15 03:17:57;;;;;;;41.08;18.55;;;5.30;71.20;;;;;;4984928;28;20061;-83
2023/02/15 03:20:28;;;;;;;38.90;17.80;;;5.30;71.10;;;;;;5001079;28;20065;-82
2023/02/15 03:23:04;;;;;;;39.38;17.38;;;5.30;71.10;;;;;;5001435;28;20033;-84
2023/02/15 03:26:00;;;;;;;41.63;18.50;;;5.30;71.10;;;;;;5002054;28;20026;-84
2023/02/15 03:28:38;;;;;;;39.55;18.20;;;5.30;71.00;;;;;;4972854;28;20034;-85
2023/02/15 03:31:07;;;;;;;41.15;18.55;;;5.30;71.00;;;;;;5003775;28;20100;-82
2023/02/15 03:33:35;;;;;;;38.25;17.63;;;5.30;70.90;;;;;;4983769;28;20498;-83
2023/02/15 03:36:18;;;;;;;38.70;18.30;;;5.40;70.90;;;;;;4985997;28;20029;-82
2023/02/15 03:39:10;;;;;;;42.22;19.45;;;5.30;70.80;;;;;;4992020;28;20021;-84
2023/02/15 03:42:02;;;;;;;36.90;16.80;;;5.30;70.80;;;;;;4989204;28;20037;-81
2023/02/15 03:44:31;;;;;;;39.35;17.85;;;5.30;70.80;;;;;;4980616;28;20062;-82
2023/02/15 03:47:06;;;;;;;39.15;17.67;;;5.30;70.70;;;;;;5003947;28;20026;-82
2023/02/15 03:49:42;;;;;;;40.13;16.85;;;5.40;70.80;;;;;;4989225;28;20019;-82
2023/02/15 03:52:09;;;;;;;34.47;16.70;;;5.30;70.80;;;;;;5006034;28;20374;-81
2023/02/15 03:54:42;;;;;;;37.10;16.45;;;5.30;70.80;;;;;;5006120;28;20487;-81
2023/02/15 04:03:23;;;;;;;41.92;18.85;;;5.40;70.80;;;;;;5003848;28;20072;-82
2023/02/15 04:05:49;;;;;;;45.97;19.55;;;5.40;70.90;;;;;;5004673;28;20116;-83
2023/02/15 04:08:15;;;;;;;44.75;19.52;;;5.40;70.80;;;;;;4989507;28;20558;-83
2023/02/15 04:10:53;;;;;;;41.47;19.20;;;5.40;70.90;;;;;;4989107;28;20018;-82
2023/02/15 04:13:24;;;;;;;45.58;18.95;;;5.40;70.90;;;;;;4988484;28;20026;-82
2023/02/15 04:16:05;;;;;;;45.75;19.33;;;5.40;71.60;;;;;;5004884;28;20081;-82
2023/02/15 04:26:45;;;;;;;42.53;19.33;;;5.50;70.70;;;;;;5006038;28;20065;-83
2023/02/15 04:29:11;;;;;;;45.90;20.48;;;5.50;70.70;;;;;;4989812;28;20164;-82
2023/02/15 04:31:37;;;;;;;45.92;20.15;;;5.50;70.60;;;;;;5003803;28;20101;-82
2023/02/15 04:34:03;;;;;;;48.08;20.55;;;5.60;70.70;;;;;;4988420;28;20028;-83
2023/02/15 04:36:29;;;;;;;42.75;18.20;;;5.50;70.60;;;;;;5002978;28;20152;-83
2023/02/15 04:38:54;;;;;;;44.50;19.52;;;5.60;70.60;;;;;;4987667;28;20034;-82
2023/02/15 04:41:20;;;;;;;45.65;19.48;;;5.60;70.70;;;;;;5000972;28;20062;-83
2023/02/15 04:43:46;;;;;;;44.78;20.42;;;5.60;70.60;;;;;;4986409;28;20050;-83
2023/02/15 04:46:12;;;;;;;44.13;20.42;;;5.60;70.50;;;;;;4986364;28;20022;-82
2023/02/15 04:48:38;;;;;;;47.03;20.77;;;5.60;70.50;;;;;;4987758;28;20029;-83
2023/02/15 04:51:07;;;;;;;45.35;19.15;;;5.60;70.50;;;;;;5006372;28;20069;-81
2023/02/15 04:53:33;;;;;;;47.03;21.38;;;5.60;70.50;;;;;;4986239;28;20033;-82
2023/02/15 04:55:59;;;;;;;43.17;19.65;;;5.50;70.50;;;;;;5004963;28;20034;-83
2023/02/15 04:58:25;;;;;;;53.40;20.90;;;5.60;70.60;;;;;;5005169;28;20021;-83
2023/02/15 05:00:54;;;;;;;43.95;19.30;;;5.60;70.50;;;;;;5002756;28;20032;-82
2023/02/15 05:03:20;;;;;;;44.28;19.00;;;5.60;70.50;;;;;;4984680;28;20038;-84
2023/02/15 05:05:46;;;;;;;45.50;20.65;;;5.60;70.50;;;;;;4987303;28;20022;-83
2023/02/15 05:08:11;;;;;;;45.25;19.67;;;5.60;70.50;;;;;;5001326;28;20050;-81
2023/02/15 05:10:37;;;;;;;47.35;20.13;;;5.60;70.40;;;;;;5005766;28;20405;-83
2023/02/15 05:13:03;;;;;;;40.45;18.80;;;5.60;70.40;;;;;;5002775;28;20029;-82
2023/02/15 05:15:29;;;;;;;43.67;18.45;;;5.50;70.30;;;;;;5004296;28;20188;-83
2023/02/15 05:17:55;;;;;;;45.22;19.50;;;5.50;70.30;;;;;;5004019;28;20019;-82
2023/02/15 05:20:20;;;;;;;42.67;19.00;;;5.50;70.10;;;;;;4985238;28;20042;-83
2023/02/15 05:22:46;;;;;;;44.78;19.90;;;5.50;70.10;;;;;;4986820;28;20057;-82
2023/02/15 05:30:40;;;;;;;51.17;19.60;;;5.50;69.90;;;;;;5003349;28;20057;-83
2023/02/15 05:33:07;;;;;;;39.15;18.30;;;5.50;69.90;;;;;;5004328;28;20423;-83
2023/02/15 05:35:34;;;;;;;43.33;18.40;;;5.50;69.90;;;;;;4986826;28;20027;-81
2023/02/15 05:38:00;;;;;;;43.97;20.20;;;5.50;69.90;;;;;;5003297;28;20022;-83
2023/02/15 05:40:26;;;;;;;42.90;20.20;;;5.50;70.00;;;;;;5002764;28;20072;-84
2023/02/15 05:42:51;;;;;;;41.83;18.63;;;5.50;70.00;;;;;;4986920;28;20053;-83
2023/02/15 05:45:17;;;;;;;42.35;19.73;;;5.50;70.00;;;;;;4984786;28;20054;-85
2023/02/15 05:47:43;;;;;;;41.40;19.10;;;5.50;69.90;;;;;;5008746;28;20050;-83
2023/02/15 05:50:11;;;;;;;45.80;20.38;;;5.50;70.00;;;;;;5012075;28;20073;-82
2023/02/15 05:52:37;;;;;;;49.83;20.33;;;5.50;70.10;;;;;;5012367;28;20038;-82
2023/02/15 05:55:04;;;;;;;40.95;18.58;;;5.50;70.00;;;;;;5017752;28;20153;-82
2023/02/15 05:57:30;;;;;;;48.58;20.52;;;5.50;70.00;;;;;;4992851;28;20022;-84
2023/02/15 05:59:56;;;;;;;48.00;20.45;;;5.40;69.80;;;;;;5007316;28;20050;-83
2023/02/15 06:02:22;;;;;;;50.53;20.10;;;5.40;70.00;;;;;;5007214;28;20026;-84
2023/02/15 06:04:47;;;;;;;51.65;21.25;;;5.40;69.90;;;;;;5005893;28;20029;-83
2023/02/15 06:07:13;;;;;;;51.20;21.15;;;5.50;70.00;;;;;;5004512;28;20368;-83
2023/02/15 06:09:39;;;;;;;43.15;19.52;;;5.50;70.00;;;;;;5003281;28;20050;-83
2023/02/15 06:12:05;;;;;;;42.95;19.35;;;5.40;70.00;;;;;;4986826;28;20101;-83
2023/02/15 06:14:31;;;;;;;44.80;19.42;;;5.50;70.10;;;;;;5002891;28;20392;-85
2023/02/15 06:16:58;;;;;;;41.05;18.33;;;5.50;70.20;;;;;;5003975;28;20076;-84
2023/02/15 06:19:25;;;;;;;46.65;19.88;;;5.50;70.20;;;;;;5001289;28;20097;-84
2023/02/15 06:21:51;;;;;;;48.33;19.58;;;5.50;70.10;;;;;;5000065;28;20031;-82
2023/02/15 06:24:17;;;;;;;46.17;20.85;;;5.50;69.90;;;;;;4986375;28;20037;-83
2023/02/15 06:26:43;;;;;;;44.90;18.95;;;5.50;70.00;;;;;;4985983;28;20117;-84
2023/02/15 06:29:08;;;;;;;42.88;19.35;;;5.60;69.80;;;;;;4983179;28;20328;-83
2023/02/15 06:31:34;;;;;;;43.03;19.80;;;5.60;69.90;;;;;;4988210;28;20467;-83
2023/02/15 06:34:03;;;;;;;43.65;19.65;;;5.60;70.00;;;;;;5003241;28;20077;-85
2023/02/15 06:36:29;;;;;;;43.25;19.92;;;5.50;69.80;;;;;;5003385;28;20033;-83
2023/02/15 06:38:55;;;;;;;43.25;19.25;;;5.50;69.70;;;;;;5003886;28;20435;-82
2023/02/15 06:41:21;;;;;;;37.53;18.08;;;5.50;69.70;;;;;;5004669;28;20022;-83
2023/02/15 06:43:47;;;;;;;47.10;18.52;;;5.50;69.70;;;;;;4987330;28;20033;-83
2023/02/15 06:46:13;;;;;;;44.45;18.35;;;5.50;69.70;;;;;;4985116;28;20024;-84
2023/02/15 06:48:39;;;;;;;39.70;16.95;;;5.50;69.70;;;;;;5003925;28;20054;-83
2023/02/15 06:51:04;;;;;;;35.67;16.65;;;5.50;69.40;;;;;;4987015;28;20030;-83
2023/02/15 06:53:30;;;;;;;39.17;17.83;;;5.50;69.30;;;;;;5002941;28;20049;-83
2023/02/15 06:56:06;;;;;;;41.83;16.65;;;5.50;69.20;;;;;;5000398;28;20049;-85
2023/02/15 06:58:36;;;;;;;35.88;17.25;;;5.50;69.20;;;;;;4990802;28;20021;-83
2023/02/15 07:01:02;;;;;;;42.28;19.83;;;5.50;69.10;;;;;;4982996;28;20029;-82
2023/02/15 07:03:29;;;;;;;40.88;18.15;;;5.50;69.10;;;;;;5013717;28;20030;-85
2023/02/15 07:05:55;;;;;;;41.72;19.35;;;5.50;68.90;;;;;;4996104;28;20090;-82
2023/02/15 07:08:22;;;;;;;38.58;17.52;;;5.50;69.00;;;;;;5013828;28;20025;-83
2023/02/15 07:10:49;;;;;;;40.63;18.63;;;5.50;69.00;;;;;;5016052;28;20418;-86
2023/02/15 07:13:15;;;;;;;40.17;17.05;;;5.60;69.00;;;;;;5016920;28;20057;-84
2023/02/15 07:15:41;;;;;;;38.88;18.05;;;5.60;68.90;;;;;;4999871;28;20502;-84
2023/02/15 07:18:07;;;;;;;37.65;17.60;;;5.60;68.80;;;;;;4999881;28;20053;-83
2023/02/15 07:20:35;;;;;;;41.85;18.02;;;5.60;68.70;;;;;;5017061;28;20056;-83
2023/02/15 07:23:02;;;;;;;38.70;18.00;;;5.60;68.80;;;;;;4999193;28;20029;-85
2023/02/15 07:25:27;;;;;;;36.70;17.38;;;5.60;68.80;;;;;;5017039;28;20029;-85
2023/02/15 07:28:03;;;;;;;35.70;16.33;;;5.70;68.90;;;;;;4999158;28;20022;-82
2023/02/15 07:30:29;;;;;;;31.23;15.15;;;5.70;68.80;;;;;;5011405;28;20033;-84
2023/02/15 07:35:48;;;;;;;41.92;17.67;;;5.80;68.60;;;;;;5017007;28;20044;-85
2023/02/15 07:38:14;;;;;;;44.08;19.45;;;5.80;68.40;;;;;;5018682;28;20030;-84
2023/02/15 07:40:40;;;;;;;44.15;18.73;;;5.80;68.50;;;;;;5031812;28;20021;-83
2023/02/15 07:43:06;;;;;;;39.50;17.45;;;5.90;68.30;;;;;;5003852;28;20028;-85
2023/02/15 07:45:32;;;;;;;41.05;18.75;;;5.90;68.10;;;;;;5010063;28;20026;-83
2023/02/15 07:47:57;;;;;;;37.55;17.17;;;5.80;68.00;;;;;;5020350;28;20022;-86
2023/02/15 07:50:23;;;;;;;42.13;18.55;;;5.90;68.10;;;;;;5002112;28;20395;-85
2023/02/15 07:52:49;;;;;;;45.42;19.50;;;5.90;68.90;;;;;;5030413;28;20018;-83
2023/02/15 07:55:15;;;;;;;42.80;19.23;;;5.90;68.10;;;;;;5007465;28;20177;-83
2023/02/15 07:57:45;;;;;;;45.53;19.48;;;5.90;68.10;;;;;;5002531;28;20033;-84
2023/02/15 08:00:16;;;;;;;47.85;18.83;;;5.90;68.10;;;;;;5012675;28;20036;-83
2023/02/15 08:03:12;;;;;;;41.63;18.13;;;6.00;68.20;;;;;;5002264;28;20113;-85
2023/02/15 08:05:40;;;;;;;46.35;19.42;;;6.00;68.00;;;;;;5026854;28;20092;-83
2023/02/15 08:08:07;;;;;;;46.60;19.52;;;6.00;67.80;;;;;;5029096;28;20350;-85
2023/02/15 08:13:17;;;;;;;41.60;18.15;;;5.90;67.60;;;;;;5024858;28;20071;-82
2023/02/15 08:15:50;;;;;;;45.75;20.48;;;6.00;67.80;;;;;;5008053;28;20038;-85
2023/02/15 08:18:16;;;;;;;50.33;20.65;;;6.00;67.80;;;;;;5005705;28;20076;-85
2023/02/15 08:20:42;;;;;;;49.58;19.20;;;6.00;67.80;;;;;;5015828;28;20057;-85
2023/02/15 08:23:08;;;;;;;40.67;16.88;;;6.00;67.80;;;;;;5029381;28;20026;-83
2023/02/15 08:25:33;;;;;;;51.83;20.08;;;6.10;68.20;;;;;;5022747;28;20026;-85
2023/02/15 08:27:59;;;;;;;53.22;21.13;;;6.20;68.40;;;;;;5024963;28;20108;-83
2023/02/15 08:30:25;;;;;;;58.50;21.20;;;6.20;68.20;;;;;;5002863;28;20502;-83
2023/02/15 08:32:51;;;;;;;52.58;19.77;;;6.30;67.80;;;;;;5035301;28;20478;-84
2023/02/15 08:35:17;;;;;;;61.72;22.80;;;6.30;67.80;;;;;;5035690;28;20036;-83
2023/02/15 08:37:42;;;;;;;55.65;23.30;;;6.40;67.80;;;;;;5018040;28;20033;-84
2023/02/15 08:40:09;;;;;;;55.60;22.75;;;6.40;67.60;;;;;;5017943;28;20028;-85
2023/02/15 08:42:34;;;;;;;54.72;22.92;;;6.50;67.70;;;;;;5024546;28;20041;-82
2023/02/15 08:45:00;;;;;;;55.97;22.30;;;6.50;67.70;;;;;;4997795;28;20033;-82
2023/02/15 08:47:26;;;;;;;49.80;20.17;;;6.60;68.50;;;;;;4998037;28;20057;-83
2023/02/15 08:49:52;;;;;;;47.50;20.88;;;6.70;67.80;;;;;;5015858;28;20029;-82
2023/02/15 08:52:18;;;;;;;47.90;20.55;;;6.80;68.30;;;;;;5015481;28;20049;-83
2023/02/15 08:54:44;;;;;;;48.08;19.95;;;6.90;67.90;;;;;;5015723;28;20042;-82
2023/02/15 08:57:10;;;;;;;50.92;21.38;;;7.00;67.80;;;;;;5018819;28;20022;-84
2023/02/15 08:59:36;;;;;;;55.20;23.50;;;7.10;67.60;;;;;;4999265;28;20076;-84
2023/02/15 09:02:02;;;;;;;70.05;30.45;;;7.20;67.30;;;;;;5017317;28;20116;-84
2023/02/15 09:04:28;;;;;;;70.30;29.35;;;7.20;66.60;;;;;;5004329;28;20026;-84
2023/02/15 09:06:55;;;;;;;61.28;26.98;;;7.20;66.30;;;;;;5023576;28;20037;-82
2023/02/15 09:09:21;;;;;;;57.00;28.95;;;7.30;66.50;;;;;;5007195;28;20053;-82
2023/02/15 09:11:49;;;;;;;54.55;25.50;;;7.40;66.50;;;;;;5024211;28;20029;-83
2023/02/15 09:14:21;;;;;;;61.22;26.58;;;7.50;66.40;;;;;;5025802;28;20056;-83
2023/02/15 09:16:51;;;;;;;60.40;26.30;;;7.50;66.30;;;;;;5015125;28;20077;-83
2023/02/15 09:19:19;;;;;;;57.65;24.77;;;7.60;66.10;;;;;;5013358;28;20904;-84
2023/02/15 09:21:45;;;;;;;57.85;25.45;;;7.70;66.00;;;;;;5017322;28;20456;-83
2023/02/15 09:24:15;;;;;;;56.85;25.63;;;7.70;65.70;;;;;;4982027;28;20018;-83
2023/02/15 09:26:43;;;;;;;63.08;26.33;;;7.80;65.50;;;;;;4998695;28;20483;-81
2023/02/15 09:29:10;;;;;;;60.70;27.60;;;7.90;65.40;;;;;;5000448;28;20049;-81
2023/02/15 09:31:45;;;;;;;60.45;26.15;;;7.90;65.30;;;;;;5019054;28;20489;-82
2023/02/15 09:34:13;;;;;;;66.25;28.70;;;8.00;65.00;;;;;;5014518;28;20032;-83
2023/02/15 09:36:40;;;;;;;57.80;26.42;;;8.00;64.80;;;;;;4998663;28;20034;-84
2023/02/15 09:39:23;;;;;;;59.78;26.67;;;8.00;64.70;;;;;;4997799;28;20028;-82
2023/02/15 09:41:55;;;;;;;63.08;29.55;;;8.10;64.40;;;;;;4990406;28;20396;-84
2023/02/15 09:44:33;;;;;;;66.00;29.48;;;8.10;64.30;;;;;;4999115;28;20030;-85
2023/02/15 09:47:33;;;;;;;64.85;27.48;;;8.20;64.00;;;;;;5019156;28;20029;-82
2023/02/15 09:50:20;;;;;;;62.67;27.85;;;8.20;63.90;;;;;;5017700;28;20032;-83
2023/02/15 09:53:05;;;;;;;57.38;27.00;;;8.20;63.80;;;;;;5011800;28;20026;-81
2023/02/15 09:55:58;;;;;;;61.53;28.73;;;8.30;63.60;;;;;;5019191;28;20026;-82
2023/02/15 09:58:30;;;;;;;76.35;33.45;;;8.30;63.50;;;;;;5020079;28;20053;-82
2023/02/15 10:01:21;;;;;;;73.88;33.90;;;8.30;63.20;;;;;;5016566;28;20068;-82
2023/02/15 10:04:18;;;;;;;73.07;34.08;;;8.30;63.10;;;;;;5001034;28;20033;-81
2023/02/15 10:07:06;;;;;;;77.32;33.83;;;8.30;62.90;;;;;;5013336;28;20033;-81
2023/02/15 10:09:34;;;;;;;78.30;33.78;;;8.30;63.00;;;;;;5015168;28;20024;-80
2023/02/15 10:12:21;;;;;;;75.50;32.85;;;8.40;63.00;;;;;;5014587;28;20466;-79
2023/02/15 10:14:47;;;;;;;72.78;32.78;;;8.40;62.80;;;;;;4997273;28;20475;-79
2023/02/15 10:17:37;;;;;;;77.60;34.70;;;8.50;63.00;;;;;;4997145;28;20030;-80
2023/02/15 10:20:38;;;;;;;77.35;34.63;;;8.50;62.70;;;;;;4996745;28;20549;-80
2023/02/15 10:23:13;;;;;;;79.32;32.67;;;8.50;62.80;;;;;;4999429;28;20463;-80
2023/02/15 10:26:13;;;;;;;71.35;33.00;;;8.50;62.80;;;;;;5019879;28;20094;-80
2023/02/15 10:28:54;;;;;;;78.45;34.08;;;8.50;62.60;;;;;;5010125;28;20065;-79
2023/02/15 10:31:52;;;;;;;72.75;33.05;;;8.50;62.60;;;;;;5015872;28;20026;-77
2023/02/15 10:34:25;;;;;;;103.30;40.30;;;8.60;62.60;;;;;;5032628;28;20036;-78
2023/02/15 10:37:06;;;;;;;134.00;50.45;;;8.60;62.00;;;;;;5016138;28;20466;-78
2023/02/15 10:39:59;;;;;;;99.25;40.45;;;8.50;60.90;;;;;;5033302;28;20057;-77
2023/02/15 10:42:54;;;;;;;91.88;37.40;;;8.40;61.10;;;;;;5015651;28;20022;-78
2023/02/15 10:45:25;;;;;;;108.75;43.15;;;8.40;61.60;;;;;;5017558;28;20030;-79
2023/02/15 10:48:03;;;;;;;98.97;40.30;;;8.40;61.50;;;;;;5004522;28;20490;-77
2023/02/15 10:50:50;;;;;;;87.72;39.63;;;8.40;61.70;;;;;;5000085;28;20120;-78
2023/02/15 10:53:19;;;;;;;105.65;42.90;;;8.40;61.90;;;;;;4992107;28;20113;-78
2023/02/15 10:55:54;;;;;;;111.63;45.28;;;8.40;62.00;;;;;;4980817;28;20031;-77
2023/02/15 10:58:56;;;;;;;106.18;44.63;;;8.40;61.70;;;;;;4984556;28;20109;-78
2023/02/15 11:01:49;;;;;;;126.55;53.28;;;8.50;61.90;;;;;;4998294;28;20018;-77
2023/02/15 11:04:36;;;;;;;129.15;51.83;;;8.50;61.80;;;;;;4980300;28;20036;-77
2023/02/15 11:07:17;;;;;;;146.93;59.70;;;8.60;61.80;;;;;;4980170;28;20019;-77
2023/02/15 11:09:48;;;;;;;126.07;52.33;;;8.50;61.50;;;;;;4997659;28;20431;-77
2023/02/15 11:12:20;;;;;;;105.75;44.83;;;8.60;61.60;;;;;;4980124;28;20391;-78
2023/02/15 11:15:19;;;;;;;110.20;43.80;;;8.60;61.70;;;;;;4989069;28;20026;-78
2023/02/15 11:17:55;;;;;;;101.35;42.45;;;8.60;61.60;;;;;;4937572;29;20046;-78
2023/02/15 11:20:36;;;;;;;96.57;40.72;;;8.70;61.00;;;;;;4937544;29;20083;-78
2023/02/15 11:23:02;;;;;;;91.70;39.92;;;8.70;60.80;;;;;;4929837;29;20424;-79
2023/02/15 11:25:32;;;;;;;97.90;41.65;;;8.60;61.00;;;;;;4937537;29;20031;-78
2023/02/15 11:28:29;;;;;;;95.20;41.53;;;8.70;61.20;;;;;;4921644;29;20103;-78
2023/02/15 11:30:56;;;;;;;99.75;42.97;;;8.70;61.00;;;;;;4920837;29;20087;-78
2023/02/15 11:33:37;;;;;;;103.53;43.78;;;8.70;60.80;;;;;;4937516;29;20036;-78
2023/02/15 11:36:13;;;;;;;113.80;46.28;;;8.70;60.70;;;;;;4937381;29;20055;-78
2023/02/15 11:38:43;;;;;;;129.82;52.47;;;8.70;60.30;;;;;;4937169;29;20031;-78
2023/02/15 11:41:16;;;;;;;116.35;45.95;;;8.70;60.00;;;;;;4937634;29;20078;-78
2023/02/15 11:44:08;;;;;;;105.85;44.42;;;8.70;60.40;;;;;;4937571;29;20031;-79
2023/02/15 11:46:34;;;;;;;111.15;46.13;;;8.70;60.70;;;;;;4921381;29;20613;-79
2023/02/15 11:49:00;;;;;;;114.80;48.05;;;8.80;61.00;;;;;;4919973;29;20035;-78
2023/02/15 11:51:28;;;;;;;120.63;46.95;;;8.80;61.10;;;;;;4937056;29;20576;-78
2023/02/15 11:53:54;;;;;;;124.18;48.38;;;8.90;61.10;;;;;;4954076;28;20101;-78
2023/02/15 11:56:25;;;;;;;99.50;45.15;;;8.90;61.00;;;;;;4996322;28;20027;-78
2023/02/15 11:59:07;;;;;;;127.95;49.40;;;8.90;60.90;;;;;;4996677;28;20105;-78
2023/02/15 12:01:38;;;;;;;121.18;51.30;;;9.00;60.50;;;;;;4996964;28;20034;-78
2023/02/15 12:04:15;;;;;;;118.55;49.40;;;9.00;60.10;;;;;;4979184;28;20053;-78
2023/02/15 12:06:51;;;;;;;105.93;46.92;;;9.00;60.00;;;;;;4996882;28;20027;-78
2023/02/15 12:09:37;;;;;;;116.22;48.88;;;9.00;60.10;;;;;;4996700;28;20025;-78
2023/02/15 12:12:26;;;;;;;112.47;47.80;;;9.00;60.00;;;;;;4996652;28;20054;-78
2023/02/15 12:14:55;;;;;;;119.75;49.47;;;9.00;60.00;;;;;;4996577;28;20060;-78
2023/02/15 12:17:27;;;;;;;110.47;47.25;;;9.00;60.00;;;;;;4996455;28;20101;-78
2023/02/15 12:19:57;;;;;;;120.50;48.33;;;9.10;60.00;;;;;;4996375;28;20047;-78
2023/02/15 12:22:30;;;;;;;121.22;51.00;;;9.00;59.50;;;;;;5002916;28;20371;-78
2023/02/15 12:25:00;;;;;;;112.88;49.53;;;8.90;59.10;;;;;;4998313;28;20444;-78
2023/02/15 12:27:34;;;;;;;114.78;49.17;;;9.00;59.30;;;;;;5016612;28;20020;-78
2023/02/15 12:30:22;;;;;;;102.25;45.65;;;8.90;59.20;;;;;;4998417;28;20391;-78
2023/02/15 12:32:53;;;;;;;98.93;42.63;;;8.90;60.10;;;;;;5015140;28;20034;-78
2023/02/15 12:35:32;;;;;;;108.13;45.22;;;8.90;59.70;;;;;;5016125;28;20049;-78
2023/02/15 12:38:05;;;;;;;91.85;40.40;;;8.90;59.70;;;;;;5016079;28;20104;-78
2023/02/15 12:40:33;;;;;;;98.10;42.17;;;8.90;59.80;;;;;;5016088;28;20045;-78
2023/02/15 12:43:08;;;;;;;96.55;40.92;;;9.00;59.80;;;;;;5015647;28;20049;-78
2023/02/15 12:45:35;;;;;;;87.93;39.33;;;9.00;59.70;;;;;;4997990;28;20434;-78
2023/02/15 12:48:17;;;;;;;91.05;40.55;;;9.00;59.60;;;;;;5015385;28;20050;-78
2023/02/15 12:50:48;;;;;;;92.75;39.90;;;9.00;59.50;;;;;;4995821;28;20093;-78
2023/02/15 12:53:30;;;;;;;114.43;47.00;;;9.10;59.70;;;;;;4995838;28;20034;-78
2023/02/15 12:55:58;;;;;;;101.72;44.10;;;9.10;59.30;;;;;;4995719;28;20018;-78
2023/02/15 12:58:27;;;;;;;127.85;46.72;;;9.00;59.20;;;;;;4995664;28;20018;-78
2023/02/15 13:01:10;;;;;;;108.47;47.95;;;9.00;58.90;;;;;;4995702;28;20027;-78
2023/02/15 13:03:39;;;;;;;106.07;44.00;;;8.90;58.90;;;;;;4977936;28;20038;-78
2023/02/15 13:06:08;;;;;;;101.28;42.95;;;8.90;59.20;;;;;;4995498;28;20269;-78
2023/02/15 13:08:48;;;;;;;127.82;49.60;;;9.00;59.50;;;;;;4977427;28;20030;-78
2023/02/15 13:11:26;;;;;;;110.90;46.78;;;9.00;59.30;;;;;;5001578;28;20037;-78
2023/02/15 13:13:56;;;;;;;133.48;52.33;;;9.00;59.50;;;;;;4987715;28;20022;-78
2023/02/15 13:16:33;;;;;;;122.10;50.88;;;9.00;59.10;;;;;;5003517;28;20086;-78
2023/02/15 13:19:05;;;;;;;98.13;42.85;;;9.00;58.90;;;;;;5007614;28;20026;-78
2023/02/15 13:21:36;;;;;;;83.18;37.83;;;8.90;59.10;;;;;;4999870;28;20121;-78
2023/02/15 13:24:06;;;;;;;83.53;36.80;;;9.00;59.40;;;;;;5014671;28;20022;-78
2023/02/15 13:26:34;;;;;;;96.47;41.08;;;9.00;59.50;;;;;;5015835;28;20361;-78